Adobe Reservoir




Date Battery Voltage (V) Panel Temperature (degF) Reservoir Height (ft) Reservoir Acre Feet (AF) Blue Cut-Clipper-Western Meter (cfs) Hunter Plant Meter (cfs) Air Temperature (degF) Blue Cut-Clipper-Western Meter GPM (gpm) Hunter Plant Meter GPM (gpm) Reservoir Elevation (ft) Battery Voltage 24 (V) Hunter Plant Meter Total Gallons (gal) Pond Battery Voltage (V) Pond 24V Battery Voltage (V) Pipe PSI (PSI) K Gallons Total (gal) Signal Strength (db) Call Fails (ea) Total Fails (ea) Tries (ea) Water Level Sensor Upper Mammoth Meter (gpm) Upper Mammoth Meter (cfs)
03/01/2018 12.3 13.1 96.2 1,036 0.0 12.4 43 0 5,543 5,996.2 28.7 12.2 25.1 26.3 7,245,199.00 0.00 0.00 0.00
03/02/2018 12.3 13.3 96.0 1,025 0.0 12.1 43 0 5,433 5,996.0 28.5 12.2 25.8 26.3 7,253,110.00 0.00 0.00 0.00
03/03/2018 12.3 14.4 96.0 1,024 0.0 7.0 43 0 3,123 5,996.0 28.5 12.2 25.9 26.3 7,257,657.00 0.00 0.00 0.00
03/04/2018 12.3 13.7 96.1 1,030 0.0 4.3 43 0 1,929 5,996.1 28.4 12.2 25.9 26.3 7,260,465.00 65.22 0.00 0.00
03/05/2018 12.3 12.9 96.2 1,037 0.0 6.6 43 0 2,972 5,996.2 28.5 12.2 26.3 26.3 7,264,792.00 0.00 0.00 0.00
03/06/2018 12.3 13.6 96.2 1,038 0.0 4.8 43 0 2,175 5,996.2 28.5 12.2 26.3 26.4 7,267,957.00 0.00 0.00 0.00
03/07/2018 12.3 14.1 96.2 1,036 0.0 8.2 43 0 3,665 5,996.2 28.5 12.2 26.0 26.4 7,273,293.00 0.00 0.00 0.00
03/08/2018 12.3 14.8 96.2 1,034 0.0 6.8 43 0 3,066 5,996.2 28.9 12.2 26.0 26.4 7,277,756.00 0.00 0.00 0.00
03/09/2018 12.3 15.4 96.2 1,036 0.0 6.4 43 0 2,870 5,996.2 28.4 12.2 25.9 26.4 7,281,934.00 0.00 0.00 0.00
03/10/2018 12.3 15.2 96.2 1,037 0.0 8.2 44 0 3,695 5,996.2 28.5 12.2 25.9 26.4 7,287,311.00 0.00 0.00 0.00
03/11/2018 12.3 15.3 96.2 1,035 0.0 7.7 44 0 3,461 5,996.2 28.4 12.2 25.6 26.4 7,292,138.00 0.00 0.00 0.00
03/12/2018 12.3 16.0 96.2 1,039 0.0 5.3 44 0 2,364 5,996.2 28.4 12.2 25.8 26.4 7,295,579.00 0.00 0.00 0.00
03/13/2018 12.3 16.3 96.3 1,043 0.0 5.1 44 0 2,273 5,996.3 28.4 12.2 25.6 26.5 7,298,886.00 0.00 0.00 0.00
03/14/2018 12.3 14.5 96.4 1,051 0.0 5.8 44 0 2,605 5,996.4 28.4 12.2 24.7 26.5 7,302,675.00 0.00 0.00 0.00
03/15/2018 12.3 12.7 96.5 1,062 0.0 4.3 45 0 1,944 5,996.5 28.3 12.2 24.9 26.6 7,305,506.00 0.00 0.00 0.00
03/16/2018 12.3 12.2 96.6 1,067 0.0 7.4 44 0 3,341 5,996.6 28.4 12.2 25.5 26.6 7,310,366.00 0.00 0.00 0.00
03/17/2018 12.3 12.8 96.6 1,067 0.0 8.9 45 0 4,001 5,996.6 28.4 12.2 25.4 26.6 7,316,187.00 0.00 0.00 0.00
03/18/2018 12.3 11.0 96.6 1,071 0.0 3.9 44 0 1,756 5,996.6 28.4 12.2 25.2 26.6 7,318,744.00 0.00 0.00 0.00
03/19/2018 12.3 10.8 96.7 1,079 0.0 6.2 44 0 2,767 5,996.7 28.4 12.2 25.8 26.6 7,322,767.00 0.00 0.00 0.00
03/20/2018 12.3 12.5 96.8 1,085 0.0 6.1 44 0 2,717 5,996.8 28.4 12.2 25.7 26.7 7,326,718.00 0.00 0.00 0.00
03/21/2018 12.3 13.8 96.8 1,085 0.0 4.9 44 0 2,203 5,996.8 28.4 12.2 25.1 26.7 7,329,920.00 0.00 0.00 0.00
03/22/2018 12.3 13.4 96.8 1,085 0.0 5.1 45 0 2,276 5,996.8 27.6 12.2 23.4 26.7 7,333,230.00 0.00 0.00 0.00
03/23/2018 12.3 13.8 96.8 1,085 0.0 5.9 45 0 2,657 5,996.8 28.3 12.2 25.1 26.7 7,337,092.00 0.00 0.00 0.00
03/24/2018 12.3 13.3 96.9 1,090 0.0 5.6 45 0 2,508 5,996.9 28.5 12.2 24.8 26.7 7,340,738.00 0.00 0.00 0.00
03/25/2018 12.3 13.1 97.0 1,097 0.0 0.2 46 0 75 5,997.0 28.4 12.2 25.2 26.8 7,340,846.00 0.00 0.00 0.00
03/26/2018 12.3 12.4 97.1 1,106 0.0 3.3 45 0 1,486 5,997.1 28.4 12.2 25.8 26.8 7,343,006.00 0.00 0.00 0.00
03/27/2018 12.3 12.9 97.1 1,106 0.0 4.4 45 0 1,963 5,997.1 28.4 12.2 25.8 26.8 7,345,861.00 0.00 0.00 0.00
03/28/2018 12.3 14.2 97.1 1,106 0.0 5.7 46 0 2,566 5,997.1 28.5 12.2 25.8 26.8 7,349,589.00 64.51 0.00 0.00
03/29/2018 12.3 14.8 97.0 1,104 0.0 9.0 46 0 4,054 5,997.0 28.5 12.2 25.8 26.8 7,355,485.00 0.00 0.00 0.00
03/30/2018 12.3 15.2 97.0 1,100 0.0 6.3 46 0 2,822 5,997.0 28.5 12.2 25.7 26.8 7,359,590.00 0.00 0.00 0.00
03/31/2018 12.3 16.4 97.0 1,098 0.0 7.9 47 0 3,543 5,997.0 28.5 12.2 25.8 26.8 7,364,743.00 0.00 0.00 0.00
Average 0.0 6.3 0.00
Maximum 0.0 12.4 0.00
Minimum 0.0 0.2 0.00
Total Volume (AF) 0.0 388.3 0.00